Time;durP1;ratioP1;P1;durP2;ratioP2;P2;SDS_P1;SDS_P2;PMS_P1;PMS_P2;Temp;Humidity;BMP_temperature;BMP_pressure;BME280_temperature;BME280_humidity;BME280_pressure;Samples;Min_cycle;Max_cycle;Signal;HPM_P1;HPM_P2
2023/11/23 00:00:35;;;;;;;18.60;12.20;;;;;;;-2.93;96.86;97313.07;108790;1272;25294;-78
2023/11/23 00:03:26;;;;;;;17.30;12.00;;;;;;;-2.89;96.91;97304.98;108805;1272;23253;-78
2023/11/23 00:05:57;;;;;;;17.30;12.20;;;;;;;-2.84;96.93;97301.80;108807;1272;25420;-78
2023/11/23 00:08:29;;;;;;;19.70;12.70;;;;;;;-2.83;96.80;97294.20;108815;1272;25888;-79
2023/11/23 00:11:02;;;;;;;14.10;9.70;;;;;;;-2.84;96.73;97291.59;108824;1269;24984;-78
2023/11/23 00:13:34;;;;;;;19.70;12.20;;;;;;;-2.83;96.73;97280.75;108799;1272;22517;-79
2023/11/23 00:16:06;;;;;;;17.80;11.40;;;;;;;-2.84;96.70;97278.36;108849;1272;22517;-79
2023/11/23 00:18:43;;;;;;;16.10;10.50;;;;;;;-2.81;96.58;97276.85;108880;1266;22568;-79
2023/11/23 00:21:16;;;;;;;16.40;9.60;;;;;;;-2.81;96.56;97282.37;108813;1272;22561;-78
2023/11/23 00:23:47;;;;;;;14.20;8.10;;;;;;;-2.83;96.54;97269.50;108868;1267;22522;-79
2023/11/23 00:26:18;;;;;;;15.80;9.30;;;;;;;-2.89;96.46;97257.01;108798;1251;22508;-79
2023/11/23 00:28:49;;;;;;;18.40;10.50;;;;;;;-2.93;96.37;97249.81;108804;1266;22519;-79
2023/11/23 00:31:21;;;;;;;18.30;11.40;;;;;;;-2.94;96.36;97244.50;108750;1272;26431;-78
2023/11/23 00:33:53;;;;;;;10.60;6.00;;;;;;;-2.94;96.32;97237.98;108832;1269;22499;-79
2023/11/23 00:36:24;;;;;;;11.60;6.90;;;;;;;-2.96;96.27;97235.46;108806;1272;22517;-79
2023/11/23 00:38:57;;;;;;;14.20;6.80;;;;;;;-3.00;96.16;97236.49;108792;1270;22634;-79
2023/11/23 00:41:28;;;;;;;11.50;7.40;;;;;;;-3.01;95.99;97240.10;108829;1270;24212;-78
2023/11/23 00:44:02;;;;;;;17.20;10.30;;;;;;;-3.03;95.95;97237.52;108802;1267;22561;-79
2023/11/23 00:46:36;;;;;;;16.70;9.70;;;;;;;-3.05;95.96;97243.61;108823;1272;22637;-79
2023/11/23 00:49:08;;;;;;;13.20;7.40;;;;;;;-3.06;95.89;97245.44;108823;1266;23801;-79
2023/11/23 00:51:42;;;;;;;16.80;10.20;;;;;;;-3.06;95.76;97245.63;108787;1272;25236;-79
2023/11/23 00:54:13;;;;;;;15.30;9.60;;;;;;;-3.06;95.93;97251.09;108811;1269;24170;-78
2023/11/23 00:56:54;;;;;;;20.90;12.30;;;;;;;-3.06;95.96;97241.23;108817;1272;25307;-79
2023/11/23 00:59:25;;;;;;;19.20;10.70;;;;;;;-3.05;96.01;97238.63;108791;1272;22464;-79
2023/11/23 01:01:56;;;;;;;16.80;11.20;;;;;;;-3.05;95.91;97239.34;108829;1272;22555;-78
2023/11/23 01:04:28;;;;;;;18.30;11.10;;;;;;;-3.05;96.02;97238.85;108815;1272;22514;-78
2023/11/23 01:07:00;;;;;;;17.30;12.00;;;;;;;-3.07;95.99;97229.34;108795;1272;22538;-79
2023/11/23 01:09:32;;;;;;;19.00;11.30;;;;;;;-3.08;95.92;97229.30;108870;1272;24279;-79
2023/11/23 01:12:08;;;;;;;14.50;8.90;;;;;;;-3.07;95.97;97218.48;108769;1269;24434;-78
2023/11/23 01:14:41;;;;;;;16.70;8.80;;;;;;;-3.05;95.79;97203.73;108793;1272;25274;-79
2023/11/23 01:17:18;;;;;;;16.00;8.90;;;;;;;-3.05;95.91;97195.61;108888;1272;23879;-79
2023/11/23 01:19:53;;;;;;;17.20;10.40;;;;;;;-3.06;95.89;97188.81;108805;1272;22776;-79
2023/11/23 01:22:26;;;;;;;11.70;6.50;;;;;;;-3.06;95.97;97188.10;108770;1272;41911;-78
2023/11/23 01:24:59;;;;;;;17.60;9.80;;;;;;;-3.06;95.80;97187.42;108803;1250;22518;-79
2023/11/23 01:27:31;;;;;;;15.80;8.90;;;;;;;-3.05;95.94;97185.23;108786;1266;22586;-79
2023/11/23 01:30:07;;;;;;;13.70;9.40;;;;;;;-3.05;95.76;97188.67;108837;1272;22530;-79
2023/11/23 01:32:40;;;;;;;12.80;7.90;;;;;;;-3.04;95.92;97193.16;108817;1269;25240;-79
2023/11/23 01:35:12;;;;;;;16.00;9.50;;;;;;;-3.00;95.72;97180.50;108817;1251;22534;-79
2023/11/23 01:37:45;;;;;;;17.20;11.90;;;;;;;-2.99;95.80;97173.73;108847;1269;22612;-79
2023/11/23 01:40:19;;;;;;;17.90;12.50;;;;;;;-2.96;95.81;97165.00;108811;1272;22697;-79
2023/11/23 01:42:51;;;;;;;12.60;7.80;;;;;;;-2.93;95.98;97153.60;108770;1272;23972;-79
2023/11/23 01:45:24;;;;;;;17.20;10.50;;;;;;;-2.93;95.77;97141.18;108763;1272;22749;-79
2023/11/23 01:47:59;;;;;;;12.90;8.00;;;;;;;-2.93;95.75;97138.11;108812;1270;22634;-79
2023/11/23 01:50:31;;;;;;;17.30;11.20;;;;;;;-2.96;95.72;97134.23;108791;1272;26930;-79
2023/11/23 01:53:05;;;;;;;17.60;11.90;;;;;;;-2.98;95.77;97128.41;108791;1272;26570;-79
2023/11/23 01:55:37;;;;;;;12.30;6.50;;;;;;;-2.99;95.77;97123.83;108804;1269;22533;-79
2023/11/23 01:58:14;;;;;;;16.00;11.70;;;;;;;-3.00;95.70;97121.17;108823;1272;23466;-79
2023/11/23 02:00:46;;;;;;;17.20;11.50;;;;;;;-3.02;95.63;97126.86;108821;1267;22671;-79
2023/11/23 02:03:22;;;;;;;16.00;11.30;;;;;;;-3.03;95.61;97124.58;108822;1256;22569;-79
2023/11/23 02:05:56;;;;;;;18.60;12.70;;;;;;;-3.04;95.74;97125.73;108836;1269;22538;-79
2023/11/23 02:08:30;;;;;;;18.10;11.50;;;;;;;-3.04;95.79;97121.09;108820;1269;23784;-79
2023/11/23 02:11:04;;;;;;;15.50;9.70;;;;;;;-3.05;95.65;97109.98;108740;1267;22518;-79
2023/11/23 02:13:40;;;;;;;17.50;11.40;;;;;;;-3.08;95.74;97107.09;108781;1272;22660;-79
2023/11/23 02:16:12;;;;;;;19.10;12.30;;;;;;;-3.08;95.73;97101.92;108806;1272;22508;-79
2023/11/23 02:18:46;;;;;;;15.80;11.30;;;;;;;-3.08;95.70;97107.08;108776;1269;22525;-79
2023/11/23 02:21:17;;;;;;;18.20;11.90;;;;;;;-3.10;95.59;97108.84;108775;1272;22514;-79
2023/11/23 02:23:48;;;;;;;15.90;11.40;;;;;;;-3.11;95.61;97107.91;108818;1256;22937;-79
2023/11/23 02:26:22;;;;;;;16.50;12.10;;;;;;;-3.11;95.57;97114.97;108800;1271;22506;-79
2023/11/23 02:28:53;;;;;;;17.10;11.40;;;;;;;-3.11;95.64;97116.55;108792;1272;23007;-79
2023/11/23 02:31:26;;;;;;;18.00;12.20;;;;;;;-3.16;95.48;97114.55;108749;1267;22514;-79
2023/11/23 02:34:02;;;;;;;17.10;11.40;;;;;;;-3.19;95.60;97106.94;108788;1251;23472;-79
2023/11/23 02:36:35;;;;;;;18.40;12.70;;;;;;;-3.19;95.63;97104.61;108827;1272;23906;-79
2023/11/23 02:39:09;;;;;;;19.10;12.60;;;;;;;-3.19;95.79;97099.39;108812;1269;23787;-79
2023/11/23 02:41:47;;;;;;;18.80;12.70;;;;;;;-3.20;95.68;97097.66;108774;1272;25240;-79
2023/11/23 02:44:21;;;;;;;17.80;12.70;;;;;;;-3.26;95.74;97098.45;108804;1272;22551;-79
2023/11/23 02:46:54;;;;;;;17.10;12.20;;;;;;;-3.25;95.85;97094.70;108817;1269;22555;-79
2023/11/23 02:49:25;;;;;;;18.60;12.90;;;;;;;-3.28;95.88;97088.65;108805;1272;22522;-79
2023/11/23 02:51:58;;;;;;;22.20;12.30;;;;;;;-3.27;96.03;97086.34;108782;1272;22523;-79
2023/11/23 02:54:29;;;;;;;16.90;11.80;;;;;;;-3.26;96.04;97086.95;108794;1272;23852;-79
2023/11/23 02:57:00;;;;;;;15.40;10.60;;;;;;;-3.26;96.00;97076.23;108842;1269;22558;-79
2023/11/23 02:59:39;;;;;;;18.00;11.50;;;;;;;-3.29;95.90;97068.38;108811;1272;25271;-79
2023/11/23 03:02:10;;;;;;;18.30;12.10;;;;;;;-3.30;96.05;97063.22;108809;1272;22920;-79
2023/11/23 03:04:43;;;;;;;19.70;13.20;;;;;;;-3.31;96.16;97057.79;108832;1272;22519;-79
2023/11/23 03:07:17;;;;;;;20.30;13.00;;;;;;;-3.31;96.09;97050.69;108827;1272;22768;-79
2023/11/23 03:09:50;;;;;;;20.20;14.20;;;;;;;-3.32;96.00;97052.48;108854;1272;25938;-79
2023/11/23 03:12:24;;;;;;;15.20;7.80;;;;;;;-3.34;96.24;97052.41;108840;1272;23250;-79
2023/11/23 03:14:57;;;;;;;16.60;10.70;;;;;;;-3.36;96.20;97047.31;108849;1254;22547;-79
2023/11/23 03:17:31;;;;;;;13.10;7.40;;;;;;;-3.38;96.22;97046.27;108788;1272;23838;-79
2023/11/23 03:20:03;;;;;;;16.40;11.30;;;;;;;-3.38;96.24;97047.52;108832;1272;25544;-79
2023/11/23 03:22:34;;;;;;;15.50;10.50;;;;;;;-3.38;96.26;97057.58;108794;1270;22576;-79
2023/11/23 03:25:07;;;;;;;17.40;12.10;;;;;;;-3.37;96.43;97058.48;108798;1272;22513;-79
2023/11/23 03:27:43;;;;;;;18.20;12.40;;;;;;;-3.35;96.39;97054.79;108843;1267;23830;-79
2023/11/23 03:30:15;;;;;;;18.80;12.00;;;;;;;-3.33;96.25;97040.90;108806;1263;23123;-79
2023/11/23 03:32:47;;;;;;;16.00;11.10;;;;;;;-3.32;96.45;97029.05;108835;1272;22540;-79
2023/11/23 03:35:20;;;;;;;20.30;13.70;;;;;;;-3.34;96.23;97021.83;108825;1268;22528;-79
2023/11/23 03:37:58;;;;;;;19.80;13.10;;;;;;;-3.38;96.24;97021.24;108801;1272;22543;-79
2023/11/23 03:40:29;;;;;;;19.50;12.80;;;;;;;-3.38;96.38;97019.55;108792;1272;22555;-79
2023/11/23 03:43:02;;;;;;;18.00;12.60;;;;;;;-3.41;96.37;97014.73;108810;1271;22521;-79
2023/11/23 03:45:35;;;;;;;18.70;12.60;;;;;;;-3.43;96.38;97019.79;108797;1269;22525;-79
2023/11/23 03:48:07;;;;;;;15.90;10.70;;;;;;;-3.43;96.46;97024.64;108837;1272;25246;-79
2023/11/23 03:50:40;;;;;;;17.20;12.60;;;;;;;-3.41;96.53;97031.61;108832;1272;22819;-79
2023/11/23 03:53:13;;;;;;;19.10;11.90;;;;;;;-3.38;96.61;97035.58;108783;1269;24211;-79
2023/11/23 03:55:45;;;;;;;16.00;10.00;;;;;;;-3.36;96.66;97031.73;108778;1272;22507;-79
2023/11/23 03:58:18;;;;;;;16.40;11.30;;;;;;;-3.35;96.82;97031.83;108875;1270;22576;-79
2023/11/23 04:00:50;;;;;;;18.00;12.10;;;;;;;-3.31;96.66;97032.70;108853;1272;22515;-79
2023/11/23 04:03:21;;;;;;;14.00;7.20;;;;;;;-3.30;96.69;97031.13;108838;1270;22521;-79
2023/11/23 04:05:54;;;;;;;11.10;6.50;;;;;;;-3.24;96.90;97029.09;108800;1272;25444;-78
2023/11/23 04:08:26;;;;;;;12.30;8.00;;;;;;;-3.12;96.96;97025.31;108858;1272;23742;-78
2023/11/23 04:10:57;;;;;;;14.00;8.80;;;;;;;-3.02;96.79;97025.27;108792;1272;22525;-77
2023/11/23 04:13:30;;;;;;;16.20;9.60;;;;;;;-2.95;96.77;97015.14;108833;1272;23078;-78
2023/11/23 04:16:04;;;;;;;17.40;11.00;;;;;;;-2.85;96.65;97015.48;108784;1272;24411;-78
2023/11/23 04:18:35;;;;;;;18.80;11.10;;;;;;;-2.80;96.50;97004.69;108858;1272;22569;-78
2023/11/23 04:21:07;;;;;;;16.10;11.30;;;;;;;-2.83;96.41;96997.21;108808;1272;23752;-78
2023/11/23 04:23:38;;;;;;;15.00;9.80;;;;;;;-2.86;96.28;96995.35;108849;1272;22520;-78
2023/11/23 04:26:09;;;;;;;13.90;8.90;;;;;;;-2.86;96.15;96988.09;108801;1272;23421;-78
2023/11/23 04:28:42;;;;;;;16.70;9.60;;;;;;;-2.83;96.24;96980.28;108811;1272;22515;-78
2023/11/23 04:31:14;;;;;;;16.30;10.80;;;;;;;-2.80;95.90;96982.57;108768;1267;22533;-78
2023/11/23 04:33:47;;;;;;;17.00;11.80;;;;;;;-2.79;95.90;96979.34;108827;1272;22465;-78
2023/11/23 04:36:22;;;;;;;15.70;10.00;;;;;;;-2.79;95.96;96974.36;108814;1263;22537;-78
2023/11/23 04:38:58;;;;;;;11.00;7.40;;;;;;;-2.78;96.02;96968.42;108802;1269;24497;-78
2023/11/23 04:41:29;;;;;;;11.30;7.20;;;;;;;-2.72;96.17;96964.27;108825;1272;22547;-78
2023/11/23 04:44:08;;;;;;;12.10;7.10;;;;;;;-2.66;95.96;96965.30;108813;1254;22593;-77
2023/11/23 04:46:42;;;;;;;17.20;10.70;;;;;;;-2.66;95.78;96964.02;108815;1272;22518;-78
2023/11/23 04:49:16;;;;;;;14.30;7.80;;;;;;;-2.65;95.72;96956.65;108813;1272;22587;-78
2023/11/23 04:51:47;;;;;;;14.00;9.40;;;;;;;-2.65;95.82;96939.88;108817;1267;22718;-78
2023/11/23 04:54:18;;;;;;;16.00;10.30;;;;;;;-2.64;95.59;96938.17;108835;1269;24932;-78
2023/11/23 04:56:53;;;;;;;10.80;6.20;;;;;;;-2.64;95.56;96932.54;108804;1271;22522;-78
2023/11/23 04:59:24;;;;;;;16.10;10.50;;;;;;;-2.65;95.61;96930.54;108800;1272;24296;-78
2023/11/23 05:01:58;;;;;;;16.70;11.00;;;;;;;-2.65;95.73;96924.98;108782;1250;23655;-77
2023/11/23 05:04:32;;;;;;;14.40;9.70;;;;;;;-2.65;95.57;96923.11;108833;1272;22510;-78
2023/11/23 05:07:05;;;;;;;14.80;10.50;;;;;;;-2.66;95.58;96914.73;108846;1267;24074;-78
2023/11/23 05:09:36;;;;;;;12.50;8.10;;;;;;;-2.65;95.46;96909.98;108814;1272;24291;-78
2023/11/23 05:12:12;;;;;;;13.80;7.70;;;;;;;-2.63;95.38;96904.00;108792;1267;22528;-78
2023/11/23 05:14:43;;;;;;;12.10;6.30;;;;;;;-2.61;95.42;96898.10;108814;1269;26492;-78
2023/11/23 05:17:14;;;;;;;12.10;7.40;;;;;;;-2.60;95.57;96897.71;108805;1267;22550;-78
2023/11/23 05:19:50;;;;;;;9.80;7.40;;;;;;;-2.57;95.38;96893.21;108837;1272;25424;-78
2023/11/23 05:22:21;;;;;;;13.50;8.80;;;;;;;-2.53;95.17;96883.72;108800;1272;22585;-78
2023/11/23 05:24:55;;;;;;;12.50;7.80;;;;;;;-2.52;94.83;96874.42;108784;1272;22522;-78
2023/11/23 05:27:26;;;;;;;13.10;8.30;;;;;;;-2.53;94.97;96868.95;108816;1272;22529;-78
2023/11/23 05:30:00;;;;;;;14.90;8.50;;;;;;;-2.53;94.95;96857.21;108838;1272;25422;-78
2023/11/23 05:32:34;;;;;;;13.90;8.00;;;;;;;-2.52;94.96;96850.58;108811;1267;22543;-78
2023/11/23 05:35:12;;;;;;;16.50;9.80;;;;;;;-2.53;94.74;96849.94;108830;1267;22530;-78
2023/11/23 05:37:44;;;;;;;17.70;9.10;;;;;;;-2.53;94.70;96841.02;108834;1272;25505;-78
2023/11/23 05:40:16;;;;;;;15.10;9.20;;;;;;;-2.53;94.55;96844.07;108794;1267;22621;-78
2023/11/23 05:42:49;;;;;;;17.30;10.60;;;;;;;-2.49;94.13;96837.73;108813;1267;25415;-78
2023/11/23 05:45:20;;;;;;;9.50;6.40;;;;;;;-2.46;93.67;96832.88;108851;1267;25949;-78
2023/11/23 05:47:52;;;;;;;17.90;9.40;;;;;;;-2.43;93.76;96839.73;108876;1270;22515;-79
2023/11/23 05:50:26;;;;;;;12.30;9.00;;;;;;;-2.41;93.60;96829.82;108847;1272;22560;-81
2023/11/23 05:52:57;;;;;;;14.30;8.00;;;;;;;-2.39;93.58;96824.58;108845;1272;23021;-79
2023/11/23 05:55:31;;;;;;;22.60;10.80;;;;;;;-2.38;93.42;96822.74;108831;1272;25265;-79
2023/11/23 05:58:02;;;;;;;25.60;13.70;;;;;;;-2.36;93.41;96820.64;108797;1272;23299;-80
2023/11/23 06:00:36;;;;;;;15.70;9.40;;;;;;;-2.35;93.04;96816.73;108835;1266;22544;-79
2023/11/23 06:03:09;;;;;;;23.20;12.30;;;;;;;-2.33;93.15;96814.19;108800;1272;22527;-79
2023/11/23 06:05:41;;;;;;;19.20;9.00;;;;;;;-2.33;93.09;96814.27;108796;1272;22525;-79
2023/11/23 06:08:15;;;;;;;18.60;9.50;;;;;;;-2.30;93.06;96797.98;108866;1272;22728;-79
2023/11/23 06:10:50;;;;;;;19.60;10.80;;;;;;;-2.28;92.80;96786.60;108847;1267;22806;-79
2023/11/23 06:13:22;;;;;;;16.50;9.60;;;;;;;-2.25;92.83;96791.26;108833;1264;22508;-79
2023/11/23 06:15:55;;;;;;;14.40;7.20;;;;;;;-2.21;92.83;96795.76;108840;1270;22529;-79
2023/11/23 06:18:28;;;;;;;17.30;10.90;;;;;;;-2.17;92.66;96795.80;108844;1272;22521;-79
2023/11/23 06:20:59;;;;;;;14.80;7.70;;;;;;;-2.14;92.67;96792.27;108835;1272;22539;-78
2023/11/23 06:23:32;;;;;;;16.00;8.70;;;;;;;-2.08;92.63;96791.10;108814;1272;22510;-79
2023/11/23 06:26:03;;;;;;;11.30;7.00;;;;;;;-2.10;92.23;96790.89;108816;1267;26599;-79
2023/11/23 06:28:34;;;;;;;14.70;8.50;;;;;;;-2.13;92.19;96787.10;108853;1272;22620;-79
2023/11/23 06:31:08;;;;;;;14.10;6.70;;;;;;;-2.10;92.70;96783.66;108803;1272;22541;-79
2023/11/23 06:33:42;;;;;;;9.90;6.20;;;;;;;-2.03;92.53;96779.99;108834;1272;22611;-79
2023/11/23 06:36:17;;;;;;;12.00;6.80;;;;;;;-1.95;92.44;96773.80;108841;1271;22863;-80
2023/11/23 06:38:50;;;;;;;13.30;8.10;;;;;;;-1.85;92.17;96777.65;108820;1269;23871;-79
2023/11/23 06:41:25;;;;;;;12.30;7.50;;;;;;;-1.77;91.43;96774.09;108788;1272;22588;-79
2023/11/23 06:43:56;;;;;;;15.20;9.30;;;;;;;-1.75;91.02;96756.50;108869;1272;22528;-79
2023/11/23 06:46:28;;;;;;;14.90;8.10;;;;;;;-1.73;90.66;96755.62;108822;1272;22551;-79
2023/11/23 06:49:03;;;;;;;14.50;8.60;;;;;;;-1.71;90.97;96736.39;108857;1272;26792;-79
2023/11/23 06:51:34;;;;;;;15.10;9.00;;;;;;;-1.64;90.44;96730.93;108843;1272;24289;-79
2023/11/23 06:54:05;;;;;;;12.30;7.90;;;;;;;-1.59;90.35;96715.93;108876;1272;22624;-79
2023/11/23 06:56:36;;;;;;;13.20;7.20;;;;;;;-1.53;90.32;96730.74;108853;1272;24043;-79
2023/11/23 06:59:07;;;;;;;11.50;7.80;;;;;;;-1.51;90.63;96727.34;108858;1272;22593;-79
2023/11/23 07:01:41;;;;;;;18.70;9.10;;;;;;;-1.39;90.05;96731.72;108837;1272;22521;-79
2023/11/23 07:04:14;;;;;;;13.60;7.30;;;;;;;-1.36;90.26;96732.23;108827;1250;22533;-79
2023/11/23 07:06:45;;;;;;;11.10;7.40;;;;;;;-1.34;90.39;96729.27;108826;1272;22534;-79
2023/11/23 07:09:19;;;;;;;11.80;7.80;;;;;;;-1.25;89.89;96725.00;108812;1270;23996;-79
2023/11/23 07:11:54;;;;;;;10.30;6.90;;;;;;;-1.12;89.68;96732.91;108807;1272;24074;-80
2023/11/23 07:14:27;;;;;;;12.10;8.20;;;;;;;-1.10;89.48;96731.04;108862;1272;22523;-79
2023/11/23 07:17:03;;;;;;;13.50;7.90;;;;;;;-1.06;89.31;96734.48;108875;1272;25338;-80
2023/11/23 07:19:34;;;;;;;13.80;9.20;;;;;;;-1.01;88.83;96748.11;108824;1272;22521;-79
2023/11/23 07:22:08;;;;;;;14.90;8.40;;;;;;;-1.04;88.66;96746.02;108814;1272;25239;-79
2023/11/23 07:24:41;;;;;;;11.30;6.70;;;;;;;-0.97;88.26;96741.46;108839;1272;23875;-79
2023/11/23 07:27:13;;;;;;;16.50;10.30;;;;;;;-0.96;88.27;96723.77;108832;1269;22522;-79
2023/11/23 07:29:44;;;;;;;12.50;7.30;;;;;;;-0.97;88.22;96726.02;108805;1272;22562;-80
2023/11/23 07:32:18;;;;;;;13.40;7.40;;;;;;;-0.95;88.33;96725.77;108766;1272;22659;-79
2023/11/23 07:34:52;;;;;;;9.00;5.70;;;;;;;-0.93;88.52;96733.49;108804;1266;22513;-79
2023/11/23 07:37:23;;;;;;;11.10;5.40;;;;;;;-0.90;88.76;96736.16;108887;1272;22533;-79
2023/11/23 07:39:54;;;;;;;12.50;8.30;;;;;;;-0.82;89.11;96740.33;108818;1272;22636;-79
2023/11/23 07:42:28;;;;;;;8.40;5.40;;;;;;;-0.71;89.04;96744.11;108806;1260;22521;-79
2023/11/23 07:45:03;;;;;;;13.30;7.00;;;;;;;-0.65;89.26;96743.61;108846;1269;25587;-80
2023/11/23 07:47:36;;;;;;;12.30;7.90;;;;;;;-0.61;89.07;96731.90;108865;1271;24209;-79
2023/11/23 07:50:09;;;;;;;12.50;5.80;;;;;;;-0.59;88.42;96713.98;108831;1266;24104;-80
2023/11/23 07:52:46;;;;;;;12.30;6.00;;;;;;;-0.55;88.50;96705.98;108874;1272;23393;-79
2023/11/23 07:55:20;;;;;;;15.90;8.90;;;;;;;-0.48;88.49;96705.63;108849;1260;22524;-80
2023/11/23 07:57:58;;;;;;;10.90;6.20;;;;;;;-0.42;88.50;96704.41;108867;1266;22513;-80
2023/11/23 08:00:32;;;;;;;13.20;7.30;;;;;;;-0.33;88.50;96709.34;108836;1266;22641;-80
2023/11/23 08:03:06;;;;;;;14.70;8.80;;;;;;;-0.26;88.38;96706.27;108804;1266;23150;-79
2023/11/23 08:05:38;;;;;;;10.10;5.30;;;;;;;-0.22;87.81;96696.15;108858;1272;25411;-78
2023/11/23 08:08:10;;;;;;;13.20;8.60;;;;;;;-0.20;87.79;96697.58;108890;1272;24500;-78
2023/11/23 08:10:44;;;;;;;13.60;7.60;;;;;;;-0.13;88.06;96698.92;108871;1269;22594;-79
2023/11/23 08:13:15;;;;;;;14.50;9.30;;;;;;;-0.06;88.17;96698.36;108858;1267;22700;-78
2023/11/23 08:15:47;;;;;;;10.10;6.30;;;;;;;-0.05;87.94;96696.62;108849;1272;25392;-78
2023/11/23 08:18:19;;;;;;;11.00;7.60;;;;;;;-0.06;87.71;96691.77;108826;1272;22543;-79
2023/11/23 08:20:52;;;;;;;11.70;7.00;;;;;;;-0.06;87.48;96693.42;108883;1267;22676;-79
2023/11/23 08:23:23;;;;;;;13.50;7.20;;;;;;;-0.06;87.33;96690.70;108893;1272;22505;-79
2023/11/23 08:25:56;;;;;;;13.80;8.50;;;;;;;-0.06;87.27;96680.44;108766;1272;22816;-79
2023/11/23 08:28:28;;;;;;;13.20;7.40;;;;;;;-0.02;86.03;96681.41;108823;1270;22977;-79
2023/11/23 08:31:01;;;;;;;15.30;9.40;;;;;;;-0.03;86.27;96683.82;108840;1272;28366;-78
2023/11/23 08:33:37;;;;;;;11.10;6.90;;;;;;;-0.01;86.76;96680.13;108856;1254;22514;-79
2023/11/23 08:36:10;;;;;;;18.30;9.30;;;;;;;0.07;87.10;96680.33;108858;1266;22623;-79
2023/11/23 08:38:44;;;;;;;14.20;8.10;;;;;;;0.10;87.17;96681.54;108921;1265;23880;-79
2023/11/23 08:41:19;;;;;;;14.70;8.70;;;;;;;0.09;86.65;96678.58;108828;1272;22529;-79
2023/11/23 08:43:50;;;;;;;10.40;5.50;;;;;;;0.13;86.94;96684.09;108819;1272;23814;-79
2023/11/23 08:46:21;;;;;;;15.20;7.50;;;;;;;0.18;87.27;96678.17;108850;1269;22934;-79
2023/11/23 08:48:52;;;;;;;12.50;6.80;;;;;;;0.23;87.33;96680.62;108883;1272;22524;-79
2023/11/23 08:51:24;;;;;;;14.50;8.30;;;;;;;0.26;87.29;96680.18;108811;1267;25536;-79
2023/11/23 08:53:58;;;;;;;10.70;6.20;;;;;;;0.30;87.50;96674.39;108886;1266;22527;-79
2023/11/23 08:56:37;;;;;;;12.50;7.40;;;;;;;0.39;87.62;96666.27;108842;1266;22525;-79
2023/11/23 08:59:13;;;;;;;14.40;8.30;;;;;;;0.47;87.76;96666.53;108764;1267;22533;-79
2023/11/23 09:01:44;;;;;;;14.20;9.20;;;;;;;0.44;87.20;96657.00;108861;1272;22570;-78
2023/11/23 09:04:18;;;;;;;12.60;7.40;;;;;;;0.45;87.64;96651.27;108802;1272;22532;-79
2023/11/23 09:06:49;;;;;;;14.80;9.60;;;;;;;0.51;87.49;96647.95;108856;1266;24025;-80
2023/11/23 09:09:25;;;;;;;16.60;9.00;;;;;;;0.53;87.45;96648.73;108866;1272;22557;-79
2023/11/23 09:11:59;;;;;;;14.70;8.60;;;;;;;0.56;87.84;96638.73;108849;1272;22538;-79
2023/11/23 09:14:30;;;;;;;17.50;10.10;;;;;;;0.56;87.42;96632.90;108864;1272;22537;-79
2023/11/23 09:17:02;;;;;;;15.70;7.30;;;;;;;0.55;87.63;96630.41;108876;1272;22517;-79
2023/11/23 09:19:35;;;;;;;14.50;9.00;;;;;;;0.58;87.78;96623.27;108862;1269;22618;-79
2023/11/23 09:22:10;;;;;;;13.00;6.80;;;;;;;0.63;88.34;96612.14;108656;1266;215822;-79
2023/11/23 09:24:41;;;;;;;13.90;7.20;;;;;;;0.69;88.35;96603.92;108858;1266;22587;-79
2023/11/23 09:27:14;;;;;;;13.80;9.10;;;;;;;0.74;88.05;96598.52;108834;1272;24208;-79
2023/11/23 09:29:48;;;;;;;14.40;8.00;;;;;;;0.86;88.43;96595.77;108855;1266;22516;-79
2023/11/23 09:32:20;;;;;;;15.30;9.90;;;;;;;0.92;88.14;96593.54;108846;1272;23663;-79
2023/11/23 09:34:54;;;;;;;13.00;8.90;;;;;;;0.96;87.61;96580.69;108834;1272;25906;-79
2023/11/23 09:37:26;;;;;;;13.80;7.10;;;;;;;1.07;87.92;96576.15;108851;1272;23845;-79
2023/11/23 09:39:59;;;;;;;13.80;9.10;;;;;;;1.32;87.82;96573.92;108873;1272;25154;-79
2023/11/23 09:42:35;;;;;;;11.70;7.30;;;;;;;1.56;88.11;96575.19;108846;1272;25279;-79
2023/11/23 09:45:16;;;;;;;16.40;11.30;;;;;;;1.74;87.83;96577.29;108848;1272;22533;-79
2023/11/23 09:47:50;;;;;;;14.20;8.70;;;;;;;1.71;86.69;96572.07;108816;1266;23863;-79
2023/11/23 09:50:22;;;;;;;13.50;8.60;;;;;;;1.60;86.52;96558.00;108837;1272;25270;-79
2023/11/23 09:52:54;;;;;;;15.40;8.10;;;;;;;1.57;86.70;96538.59;108863;1266;22640;-79
2023/11/23 09:55:29;;;;;;;15.10;8.60;;;;;;;1.59;87.35;96534.30;108864;1266;22838;-79
2023/11/23 09:58:04;;;;;;;13.90;8.40;;;;;;;1.65;87.04;96520.59;108901;1272;25443;-80
2023/11/23 10:00:36;;;;;;;16.50;7.90;;;;;;;1.71;87.27;96514.59;108863;1265;26669;-80
2023/11/23 10:03:10;;;;;;;13.10;7.40;;;;;;;1.69;87.19;96510.83;108860;1272;25433;-80
2023/11/23 10:05:43;;;;;;;14.30;8.80;;;;;;;1.69;87.19;96502.48;108841;1266;24229;-80
2023/11/23 10:08:19;;;;;;;12.40;8.00;;;;;;;1.69;87.39;96502.02;108901;1266;22522;-80
2023/11/23 10:10:51;;;;;;;12.90;7.50;;;;;;;1.68;87.47;96488.45;108893;1267;22647;-80
2023/11/23 10:13:22;;;;;;;17.30;8.80;;;;;;;1.70;87.73;96491.25;108907;1272;23010;-80
2023/11/23 10:15:55;;;;;;;13.60;8.90;;;;;;;1.74;87.83;96489.52;108839;1265;22519;-80
2023/11/23 10:18:37;;;;;;;16.00;8.80;;;;;;;1.83;87.51;96479.06;108909;1272;22540;-80
2023/11/23 10:21:14;;;;;;;17.10;9.80;;;;;;;1.81;87.15;96476.07;108825;1266;25212;-79
2023/11/23 10:23:54;;;;;;;14.80;9.10;;;;;;;1.83;87.40;96470.34;108903;1272;24212;-80
2023/11/23 10:26:31;;;;;;;14.10;9.60;;;;;;;1.82;87.10;96471.39;108884;1265;22524;-80
2023/11/23 10:29:04;;;;;;;17.30;9.40;;;;;;;1.77;87.06;96464.23;108871;1272;22520;-80
2023/11/23 10:31:38;;;;;;;17.60;10.60;;;;;;;1.71;87.10;96463.64;108830;1266;22563;-80
2023/11/23 10:34:12;;;;;;;14.30;9.30;;;;;;;1.66;87.24;96465.44;108859;1251;22548;-80
2023/11/23 10:36:46;;;;;;;18.00;10.70;;;;;;;1.65;87.70;96446.65;108850;1266;22631;-80
2023/11/23 10:39:20;;;;;;;15.60;10.00;;;;;;;1.70;87.89;96443.48;108838;1269;22538;-80
2023/11/23 10:41:53;;;;;;;13.10;8.20;;;;;;;1.72;87.95;96437.63;108909;1266;24238;-79
2023/11/23 10:44:25;;;;;;;15.70;9.80;;;;;;;1.71;87.86;96445.09;108865;1272;23873;-80
2023/11/23 10:47:02;;;;;;;13.70;8.90;;;;;;;1.74;88.20;96440.29;108928;1266;22705;-80
2023/11/23 10:49:37;;;;;;;18.40;10.40;;;;;;;1.73;87.96;96439.73;108828;1266;22550;-80
2023/11/23 10:52:13;;;;;;;17.20;10.50;;;;;;;1.68;87.92;96436.59;108942;1272;24542;-80
2023/11/23 10:54:45;;;;;;;14.20;9.30;;;;;;;1.67;88.32;96435.23;108898;1272;22531;-80
2023/11/23 10:57:18;;;;;;;16.70;11.20;;;;;;;1.66;88.58;96447.88;108827;1272;22510;-79
2023/11/23 10:59:51;;;;;;;16.10;9.90;;;;;;;1.68;88.40;96439.08;108861;1272;22577;-80
2023/11/23 11:02:26;;;;;;;18.20;11.30;;;;;;;1.69;88.47;96441.80;108847;1266;22573;-80
2023/11/23 11:05:02;;;;;;;12.40;8.50;;;;;;;1.75;88.55;96441.63;108849;1272;22527;-79
2023/11/23 11:07:38;;;;;;;17.00;10.00;;;;;;;1.80;88.56;96439.16;108914;1272;22520;-79
2023/11/23 11:10:14;;;;;;;15.20;10.00;;;;;;;1.86;88.60;96430.77;108883;1272;22565;-80
2023/11/23 11:12:51;;;;;;;16.20;9.80;;;;;;;1.91;88.57;96418.44;108861;1272;22532;-79
2023/11/23 11:15:22;;;;;;;15.50;9.20;;;;;;;1.93;88.57;96418.61;108857;1269;24311;-79
2023/11/23 11:18:06;;;;;;;14.90;8.90;;;;;;;1.97;88.84;96408.84;108848;1268;22538;-80
2023/11/23 11:20:41;;;;;;;16.10;8.20;;;;;;;2.04;88.97;96397.41;108891;1266;24096;-79
2023/11/23 11:23:12;;;;;;;16.50;9.70;;;;;;;2.07;89.02;96391.77;108840;1272;22804;-80
2023/11/23 11:25:43;;;;;;;15.80;10.40;;;;;;;2.07;89.18;96388.83;108821;1272;22521;-79
2023/11/23 11:28:19;;;;;;;13.50;8.90;;;;;;;2.01;89.10;96393.89;108864;1272;22634;-80
2023/11/23 11:30:50;;;;;;;16.00;10.40;;;;;;;1.99;89.30;96382.45;108850;1272;25387;-79
2023/11/23 11:33:26;;;;;;;18.10;11.30;;;;;;;1.97;89.45;96373.13;108797;1253;22647;-79
2023/11/23 11:35:57;;;;;;;17.20;11.20;;;;;;;1.94;89.90;96372.09;108972;1266;22640;-79
2023/11/23 11:38:28;;;;;;;15.90;9.10;;;;;;;1.96;90.27;96366.80;108925;1272;22573;-79
2023/11/23 11:41:07;;;;;;;17.50;11.70;;;;;;;1.99;90.64;96356.73;108810;1272;22981;-79
2023/11/23 11:43:45;;;;;;;14.90;9.60;;;;;;;2.00;90.85;96348.27;108900;1261;22518;-79